createdAt,value
2022-12-03T00:02:51.293Z,85.05
2022-12-03T00:07:52.328Z,85.28
2022-12-03T00:12:54.524Z,84.93
2022-12-03T00:17:55.315Z,84.80
2022-12-03T00:22:56.138Z,85.85
2022-12-03T00:27:58.289Z,85.47
2022-12-03T00:32:59.094Z,86.12
2022-12-03T00:37:59.973Z,86.15
2022-12-03T00:43:02.128Z,86.33
2022-12-03T00:48:03.089Z,86.35
2022-12-03T00:53:03.957Z,86.53
2022-12-03T00:58:08.343Z,86.63
2022-12-03T01:03:09.146Z,86.25
2022-12-03T01:08:10.088Z,85.78
2022-12-03T01:13:12.379Z,86.13
2022-12-03T01:18:13.163Z,86.51
2022-12-03T01:23:14.008Z,86.37
2022-12-03T01:28:16.246Z,86.11
2022-12-03T01:33:17.080Z,86.10
2022-12-03T01:38:17.900Z,85.69
2022-12-03T01:43:20.189Z,85.38
2022-12-03T01:48:21.037Z,86.07
2022-12-03T01:53:21.888Z,85.65
2022-12-03T01:58:29.838Z,85.68
2022-12-03T02:03:30.738Z,84.58
2022-12-03T02:08:33.705Z,84.93
2022-12-03T02:13:37.147Z,85.41
2022-12-03T02:18:38.106Z,84.78
2022-12-03T02:23:47.605Z,84.88
2022-12-03T02:28:49.930Z,84.68
2022-12-03T02:33:50.936Z,85.00
2022-12-03T02:38:52.503Z,84.90
2022-12-03T02:43:54.683Z,85.08
2022-12-03T02:48:55.621Z,84.98
2022-12-03T02:53:57.781Z,84.12
2022-12-03T02:59:04.298Z,84.24
2022-12-03T03:04:06.856Z,84.67
2022-12-03T03:09:07.826Z,84.57
2022-12-03T03:14:10.059Z,84.37
2022-12-03T03:19:10.870Z,84.70
2022-12-03T03:24:11.688Z,84.69
2022-12-03T03:29:14.023Z,84.18
2022-12-03T03:34:15.920Z,84.10
2022-12-03T03:39:16.985Z,84.15
2022-12-03T03:44:19.192Z,84.16
2022-12-03T03:49:20.019Z,84.64
2022-12-03T03:54:21.088Z,83.78
2022-12-03T03:59:23.292Z,84.52
2022-12-03T04:04:26.705Z,83.97
2022-12-03T04:09:27.907Z,84.30
2022-12-03T04:14:30.057Z,84.07
2022-12-03T04:19:30.850Z,84.73
2022-12-03T04:24:31.942Z,84.55
2022-12-03T04:29:34.165Z,83.97
2022-12-03T04:34:52.943Z,83.21
2022-12-03T04:39:53.968Z,83.45
2022-12-03T04:44:58.372Z,84.29
2022-12-03T04:49:59.127Z,84.25
2022-12-03T04:54:59.916Z,84.17
2022-12-03T05:00:02.071Z,83.96
2022-12-03T05:05:02.940Z,83.56
2022-12-03T05:10:03.919Z,84.33
2022-12-03T05:15:07.431Z,83.82
2022-12-03T05:20:28.280Z,83.69
2022-12-03T05:25:29.116Z,83.86
2022-12-03T05:30:31.495Z,84.16
2022-12-03T05:35:33.169Z,84.22
2022-12-03T05:40:34.020Z,83.40
2022-12-03T05:45:38.508Z,84.08
2022-12-03T05:50:41.526Z,83.90
2022-12-03T05:55:48.176Z,84.24
2022-12-03T06:00:50.337Z,83.81
2022-12-03T06:05:51.114Z,84.36
2022-12-03T06:10:52.258Z,83.95
2022-12-03T06:15:54.464Z,83.93
2022-12-03T06:20:55.263Z,83.84
2022-12-03T06:25:56.023Z,84.44
2022-12-03T06:30:58.216Z,84.01
2022-12-03T06:35:59.123Z,83.69
2022-12-03T06:40:59.899Z,84.08
2022-12-03T06:46:02.093Z,84.38
2022-12-03T06:51:08.130Z,83.99
2022-12-03T06:56:09.953Z,84.23
2022-12-03T07:01:12.162Z,84.65
2022-12-03T07:06:13.124Z,83.79
2022-12-03T07:11:27.927Z,83.98
2022-12-03T07:16:30.486Z,83.86
2022-12-03T07:21:31.501Z,84.10
2022-12-03T07:26:32.832Z,84.70
2022-12-03T07:31:35.060Z,84.21
2022-12-03T07:36:36.015Z,83.92
2022-12-03T07:41:36.817Z,85.10
2022-12-03T07:46:39.004Z,83.32
2022-12-03T07:51:39.887Z,83.20
2022-12-03T07:56:40.916Z,83.12
2022-12-03T08:01:43.184Z,86.24
2022-12-03T08:06:44.067Z,86.04
2022-12-03T08:11:46.404Z,84.85
2022-12-03T08:16:49.309Z,83.04
2022-12-03T08:21:50.180Z,82.00
2022-12-03T08:26:51.030Z,82.35
2022-12-03T08:31:55.226Z,81.75
2022-12-03T08:36:59.889Z,81.53
2022-12-03T08:42:27.959Z,82.24
2022-12-03T08:47:32.379Z,81.69
2022-12-03T08:52:35.173Z,82.08
2022-12-03T08:57:36.144Z,82.11
2022-12-03T09:02:38.343Z,82.67
2022-12-03T09:07:39.211Z,82.19
2022-12-03T09:12:40.071Z,82.82
2022-12-03T09:17:42.426Z,82.29
2022-12-03T09:22:43.270Z,82.13
2022-12-03T09:27:44.114Z,81.47
2022-12-03T09:32:46.282Z,80.81
2022-12-03T09:37:47.111Z,80.97
2022-12-03T09:42:48.486Z,81.39
2022-12-03T09:47:52.309Z,81.32
2022-12-03T09:52:58.176Z,81.50
2022-12-03T09:58:01.026Z,80.95
2022-12-03T10:03:07.192Z,81.42
2022-12-03T10:08:11.233Z,81.39
2022-12-03T10:13:14.431Z,81.68
2022-12-03T10:18:20.276Z,81.60
2022-12-03T10:23:22.906Z,81.69
2022-12-03T10:28:34.538Z,82.35
2022-12-03T10:33:38.640Z,82.26
2022-12-03T10:38:39.468Z,82.41
2022-12-03T10:43:40.258Z,82.71
2022-12-03T10:48:42.408Z,82.90
2022-12-03T10:53:43.308Z,83.81
2022-12-03T10:58:44.144Z,82.84
2022-12-03T11:03:46.858Z,82.78
2022-12-03T11:08:56.561Z,81.58
2022-12-03T11:14:00.135Z,81.50
2022-12-03T11:19:03.778Z,82.15
2022-12-03T11:24:18.498Z,85.21
2022-12-03T11:30:03.215Z,82.58
2022-12-03T11:35:05.490Z,80.63
2022-12-03T11:40:33.521Z,79.95
2022-12-03T11:45:39.359Z,82.47
2022-12-03T11:50:43.476Z,80.07
2022-12-03T11:55:47.261Z,79.21
2022-12-03T12:00:53.540Z,78.86
2022-12-03T12:06:07.147Z,79.08
2022-12-03T12:11:18.344Z,79.47
2022-12-03T12:16:51.328Z,80.39
2022-12-03T12:21:53.675Z,80.33
2022-12-03T12:26:54.477Z,81.27
2022-12-03T12:32:00.829Z,81.27
2022-12-03T12:37:04.099Z,81.56
2022-12-03T12:42:28.504Z,82.36
2022-12-03T12:47:32.420Z,82.54
2022-12-03T12:52:34.641Z,82.36
2022-12-03T12:57:35.490Z,82.00
2022-12-03T13:02:42.568Z,82.00
2022-12-03T13:07:45.981Z,81.66
2022-12-03T13:12:46.882Z,81.91
2022-12-03T13:17:47.762Z,82.43
2022-12-03T13:22:50.001Z,82.58
2022-12-03T13:27:51.802Z,82.48
2022-12-03T13:32:52.642Z,82.86
2022-12-03T13:37:54.879Z,82.99
2022-12-03T13:42:55.741Z,83.14
2022-12-03T13:47:59.646Z,83.20
2022-12-03T13:53:03.389Z,83.09
2022-12-03T13:58:04.180Z,83.43
2022-12-03T14:03:05.467Z,83.44
2022-12-03T14:08:07.738Z,83.57
2022-12-03T14:13:08.584Z,83.13
2022-12-03T14:18:09.372Z,82.96
2022-12-03T14:23:11.520Z,82.92
2022-12-03T14:28:12.432Z,82.78
2022-12-03T14:33:13.291Z,83.15
2022-12-03T14:38:15.445Z,83.00
2022-12-03T14:43:16.210Z,82.68
2022-12-03T14:48:17.047Z,83.00
2022-12-03T14:53:24.103Z,83.32
2022-12-03T14:58:28.269Z,82.96
2022-12-03T15:03:29.154Z,83.01
2022-12-03T15:08:31.419Z,83.30
2022-12-03T15:13:32.323Z,83.60
2022-12-03T15:18:34.568Z,83.65
2022-12-03T15:23:36.866Z,83.83
2022-12-03T15:28:52.760Z,84.46
2022-12-03T15:33:59.069Z,84.22
2022-12-03T15:39:01.874Z,84.36
2022-12-03T15:44:03.218Z,84.26
2022-12-03T15:49:03.995Z,84.63
2022-12-03T15:54:06.504Z,84.55
2022-12-03T15:59:07.329Z,84.59
2022-12-03T16:04:08.119Z,84.45
2022-12-03T16:09:10.445Z,85.01
2022-12-03T16:14:11.224Z,84.60
2022-12-03T16:19:12.055Z,84.23
2022-12-03T16:24:14.230Z,84.69
2022-12-03T16:29:15.466Z,84.22
2022-12-03T16:34:16.249Z,83.99
2022-12-03T16:39:18.576Z,84.25
2022-12-03T16:44:32.229Z,84.26
2022-12-03T16:49:32.996Z,84.11
2022-12-03T16:54:35.152Z,84.51
2022-12-03T16:59:35.959Z,84.33
2022-12-03T17:04:37.154Z,83.70
2022-12-03T17:09:39.746Z,84.55
2022-12-03T17:14:40.665Z,83.55
2022-12-03T17:19:41.464Z,83.74
2022-12-03T17:24:43.625Z,83.95
2022-12-03T17:29:44.504Z,85.39
2022-12-03T17:34:45.440Z,84.22
2022-12-03T17:39:47.593Z,83.38
2022-12-03T17:44:48.431Z,83.40
2022-12-03T17:49:49.323Z,83.62
2022-12-03T18:00:13.382Z,83.72
2022-12-03T18:05:15.852Z,83.18
2022-12-03T18:10:18.378Z,83.36
2022-12-03T18:15:19.180Z,83.29
2022-12-03T18:20:20.206Z,82.70
2022-12-03T18:25:22.508Z,83.03
2022-12-03T18:30:23.770Z,83.33
2022-12-03T18:35:24.825Z,83.83
2022-12-03T18:40:27.788Z,83.71
2022-12-03T18:45:28.621Z,83.21
2022-12-03T18:50:29.462Z,83.60
2022-12-03T18:55:35.232Z,83.15
2022-12-03T19:00:36.346Z,82.83
2022-12-03T19:05:37.575Z,82.74
2022-12-03T19:10:39.801Z,83.15
2022-12-03T19:15:40.671Z,82.54
2022-12-03T19:20:41.948Z,82.46
2022-12-03T19:25:54.852Z,82.45
2022-12-03T19:31:00.437Z,82.37
2022-12-03T19:36:02.337Z,83.14
2022-12-03T19:41:07.334Z,82.73
2022-12-03T19:46:10.477Z,82.87
2022-12-03T19:51:33.028Z,82.43
2022-12-03T19:56:33.946Z,82.85
2022-12-03T20:01:40.414Z,83.22
2022-12-03T20:06:41.550Z,83.69
2022-12-03T20:11:44.569Z,83.29
2022-12-03T20:16:45.830Z,83.20
2022-12-03T20:21:46.794Z,83.62
2022-12-03T20:26:48.993Z,83.67
2022-12-03T20:31:49.951Z,83.43
2022-12-03T20:36:50.853Z,83.76
2022-12-03T20:41:53.176Z,83.56
2022-12-03T20:46:54.127Z,83.39
2022-12-03T20:51:57.014Z,83.45
2022-12-03T20:57:00.848Z,83.20
2022-12-03T21:02:01.911Z,83.55
2022-12-03T21:07:02.856Z,83.74
2022-12-03T21:12:05.572Z,83.82
2022-12-03T21:17:09.109Z,83.81
2022-12-03T21:22:10.173Z,84.30
2022-12-03T21:27:15.784Z,83.80
2022-12-03T21:32:20.783Z,84.09
2022-12-03T21:37:22.009Z,83.88
2022-12-03T21:42:35.363Z,84.11
2022-12-03T21:47:37.802Z,84.20
2022-12-03T21:52:38.827Z,84.64
2022-12-03T21:57:40.977Z,85.13
2022-12-03T22:02:42.117Z,84.57
2022-12-03T22:07:43.031Z,84.90
2022-12-03T22:12:45.244Z,85.44
2022-12-03T22:17:46.088Z,85.63
2022-12-03T22:22:46.886Z,85.31
2022-12-03T22:27:49.019Z,85.18
2022-12-03T22:32:49.874Z,85.07
2022-12-03T22:37:50.745Z,84.63
2022-12-03T22:42:52.894Z,85.02
2022-12-03T22:47:53.665Z,85.05
2022-12-03T22:52:54.543Z,84.98
2022-12-03T22:57:56.647Z,85.07
2022-12-03T23:02:57.484Z,84.82
2022-12-03T23:07:58.410Z,85.47
2022-12-03T23:13:00.609Z,85.13
2022-12-03T23:18:01.450Z,85.47
2022-12-03T23:23:02.234Z,85.27
2022-12-03T23:28:04.456Z,85.19
2022-12-03T23:33:05.895Z,85.08
2022-12-03T23:38:06.752Z,85.19
2022-12-03T23:43:08.881Z,85.33
2022-12-03T23:48:09.687Z,85.04
2022-12-03T23:53:10.525Z,84.98
2022-12-03T23:58:12.665Z,84.75
